sensor_id;sensor_type;location;lat;lon;timestamp;pressure;altitude;pressure_sealevel;temperature;humidity
692;BME280;70475;50.084;8.576;2023-09-08T00:02:17;100919.31;;;19.01;79.38
692;BME280;70475;50.084;8.576;2023-09-08T00:04:45;100919.22;;;18.96;79.61
692;BME280;70475;50.084;8.576;2023-09-08T00:07:12;100925.91;;;18.94;80.06
692;BME280;70475;50.084;8.576;2023-09-08T00:09:40;100920.13;;;18.90;80.37
692;BME280;70475;50.084;8.576;2023-09-08T00:12:09;100919.44;;;18.83;80.87
692;BME280;70475;50.084;8.576;2023-09-08T00:14:36;100922.91;;;18.72;81.31
692;BME280;70475;50.084;8.576;2023-09-08T00:17:05;100912.00;;;18.67;81.65
692;BME280;70475;50.084;8.576;2023-09-08T00:19:32;100912.44;;;18.64;81.61
692;BME280;70475;50.084;8.576;2023-09-08T00:22:00;100916.19;;;18.63;82.12
692;BME280;70475;50.084;8.576;2023-09-08T00:24:28;100921.22;;;18.60;82.25
692;BME280;70475;50.084;8.576;2023-09-08T00:26:56;100911.69;;;18.57;82.24
692;BME280;70475;50.084;8.576;2023-09-08T00:29:24;100917.53;;;18.54;82.31
692;BME280;70475;50.084;8.576;2023-09-08T00:31:52;100914.03;;;18.54;81.82
692;BME280;70475;50.084;8.576;2023-09-08T00:34:21;100912.84;;;18.50;82.34
692;BME280;70475;50.084;8.576;2023-09-08T00:36:48;100913.06;;;18.48;82.39
692;BME280;70475;50.084;8.576;2023-09-08T00:39:16;100914.97;;;18.48;82.17
692;BME280;70475;50.084;8.576;2023-09-08T00:41:43;100912.09;;;18.42;82.43
692;BME280;70475;50.084;8.576;2023-09-08T00:44:10;100907.78;;;18.42;82.26
692;BME280;70475;50.084;8.576;2023-09-08T00:46:39;100910.09;;;18.38;82.64
692;BME280;70475;50.084;8.576;2023-09-08T00:49:07;100908.00;;;18.40;82.46
692;BME280;70475;50.084;8.576;2023-09-08T00:51:35;100902.00;;;18.38;82.66
692;BME280;70475;50.084;8.576;2023-09-08T00:54:06;100898.31;;;18.32;83.02
692;BME280;70475;50.084;8.576;2023-09-08T00:56:34;100902.31;;;18.30;82.88
692;BME280;70475;50.084;8.576;2023-09-08T00:59:02;100897.38;;;18.27;82.89
692;BME280;70475;50.084;8.576;2023-09-08T01:01:31;100898.41;;;18.26;82.81
692;BME280;70475;50.084;8.576;2023-09-08T01:04:02;100907.53;;;18.25;83.01
692;BME280;70475;50.084;8.576;2023-09-08T01:06:30;100905.69;;;18.25;83.14
692;BME280;70475;50.084;8.576;2023-09-08T01:08:59;100904.72;;;18.20;83.30
692;BME280;70475;50.084;8.576;2023-09-08T01:11:27;100904.72;;;18.20;83.06
692;BME280;70475;50.084;8.576;2023-09-08T01:13:56;100914.44;;;18.21;82.83
692;BME280;70475;50.084;8.576;2023-09-08T01:16:24;100908.44;;;18.19;83.00
692;BME280;70475;50.084;8.576;2023-09-08T01:18:51;100904.34;;;18.16;82.90
692;BME280;70475;50.084;8.576;2023-09-08T01:21:45;100915.34;;;18.15;83.46
692;BME280;70475;50.084;8.576;2023-09-08T01:24:37;100914.97;;;18.11;83.48
692;BME280;70475;50.084;8.576;2023-09-08T01:27:07;100917.53;;;18.06;83.81
692;BME280;70475;50.084;8.576;2023-09-08T01:29:38;100916.72;;;18.06;84.02
692;BME280;70475;50.084;8.576;2023-09-08T01:32:06;100915.28;;;18.03;84.00
692;BME280;70475;50.084;8.576;2023-09-08T01:34:35;100922.78;;;18.01;84.07
692;BME280;70475;50.084;8.576;2023-09-08T01:37:06;100919.69;;;17.98;84.38
692;BME280;70475;50.084;8.576;2023-09-08T01:39:34;100910.88;;;17.91;84.65
692;BME280;70475;50.084;8.576;2023-09-08T01:42:02;100911.75;;;17.85;84.95
692;BME280;70475;50.084;8.576;2023-09-08T01:44:31;100907.19;;;17.85;84.83
692;BME280;70475;50.084;8.576;2023-09-08T01:46:59;100909.06;;;17.85;84.68
692;BME280;70475;50.084;8.576;2023-09-08T01:49:26;100900.41;;;17.83;84.39
692;BME280;70475;50.084;8.576;2023-09-08T01:51:54;100896.13;;;17.75;85.02
692;BME280;70475;50.084;8.576;2023-09-08T01:54:22;100891.63;;;17.69;85.38
692;BME280;70475;50.084;8.576;2023-09-08T01:56:50;100902.84;;;17.66;85.20
692;BME280;70475;50.084;8.576;2023-09-08T01:59:17;100907.09;;;17.56;85.77
692;BME280;70475;50.084;8.576;2023-09-08T02:01:46;100907.56;;;17.53;86.20
692;BME280;70475;50.084;8.576;2023-09-08T02:04:14;100899.03;;;17.56;85.86
692;BME280;70475;50.084;8.576;2023-09-08T02:06:41;100891.56;;;17.58;85.49
692;BME280;70475;50.084;8.576;2023-09-08T02:09:09;100897.75;;;17.58;85.36
692;BME280;70475;50.084;8.576;2023-09-08T02:11:37;100907.09;;;17.56;85.35
692;BME280;70475;50.084;8.576;2023-09-08T02:14:04;100902.16;;;17.53;85.35
692;BME280;70475;50.084;8.576;2023-09-08T02:16:32;100898.28;;;17.49;85.49
692;BME280;70475;50.084;8.576;2023-09-08T02:19:01;100900.75;;;17.50;85.48
692;BME280;70475;50.084;8.576;2023-09-08T02:21:29;100898.50;;;17.47;85.61
692;BME280;70475;50.084;8.576;2023-09-08T02:23:59;100898.94;;;17.44;85.84
692;BME280;70475;50.084;8.576;2023-09-08T02:26:27;100905.56;;;17.42;85.78
692;BME280;70475;50.084;8.576;2023-09-08T02:28:58;100898.75;;;17.39;85.87
692;BME280;70475;50.084;8.576;2023-09-08T02:31:26;100897.72;;;17.40;85.71
692;BME280;70475;50.084;8.576;2023-09-08T02:33:53;100895.25;;;17.39;85.76
692;BME280;70475;50.084;8.576;2023-09-08T02:36:22;100894.41;;;17.38;85.60
692;BME280;70475;50.084;8.576;2023-09-08T02:38:52;100908.94;;;17.37;85.78
692;BME280;70475;50.084;8.576;2023-09-08T02:41:23;100904.78;;;17.35;85.84
692;BME280;70475;50.084;8.576;2023-09-08T02:43:51;100900.91;;;17.31;86.07
692;BME280;70475;50.084;8.576;2023-09-08T02:46:18;100898.66;;;17.28;86.42
692;BME280;70475;50.084;8.576;2023-09-08T02:48:46;100910.28;;;17.22;86.63
692;BME280;70475;50.084;8.576;2023-09-08T02:51:14;100904.78;;;17.17;86.69
692;BME280;70475;50.084;8.576;2023-09-08T02:53:43;100902.06;;;17.17;86.72
692;BME280;70475;50.084;8.576;2023-09-08T02:56:10;100912.44;;;17.13;86.59
692;BME280;70475;50.084;8.576;2023-09-08T02:58:38;100915.34;;;17.12;86.74
692;BME280;70475;50.084;8.576;2023-09-08T03:01:16;100909.97;;;17.12;86.71
692;BME280;70475;50.084;8.576;2023-09-08T03:03:53;100905.22;;;17.14;86.46
692;BME280;70475;50.084;8.576;2023-09-08T03:06:20;100898.59;;;17.10;86.68
692;BME280;70475;50.084;8.576;2023-09-08T03:08:49;100910.41;;;17.09;86.54
692;BME280;70475;50.084;8.576;2023-09-08T03:11:17;100909.78;;;17.07;87.00
692;BME280;70475;50.084;8.576;2023-09-08T03:13:44;100908.59;;;17.03;86.78
692;BME280;70475;50.084;8.576;2023-09-08T03:16:12;100916.88;;;17.01;86.91
692;BME280;70475;50.084;8.576;2023-09-08T03:18:39;100910.44;;;17.02;86.71
692;BME280;70475;50.084;8.576;2023-09-08T03:21:07;100907.97;;;17.01;86.88
692;BME280;70475;50.084;8.576;2023-09-08T03:23:38;100914.84;;;16.97;86.86
692;BME280;70475;50.084;8.576;2023-09-08T03:26:08;100906.78;;;16.97;86.96
692;BME280;70475;50.084;8.576;2023-09-08T03:28:37;100914.63;;;16.98;86.59
692;BME280;70475;50.084;8.576;2023-09-08T03:31:05;100907.41;;;16.99;85.84
692;BME280;70475;50.084;8.576;2023-09-08T03:33:34;100899.69;;;17.02;85.67
692;BME280;70475;50.084;8.576;2023-09-08T03:36:02;100904.63;;;17.05;85.71
692;BME280;70475;50.084;8.576;2023-09-08T03:38:30;100901.78;;;17.00;85.98
692;BME280;70475;50.084;8.576;2023-09-08T03:40:58;100900.97;;;17.00;86.39
692;BME280;70475;50.084;8.576;2023-09-08T03:43:27;100906.78;;;16.97;86.77
692;BME280;70475;50.084;8.576;2023-09-08T03:45:56;100898.91;;;16.95;87.00
692;BME280;70475;50.084;8.576;2023-09-08T03:48:23;100899.34;;;16.92;86.62
692;BME280;70475;50.084;8.576;2023-09-08T03:50:51;100896.56;;;16.81;87.61
692;BME280;70475;50.084;8.576;2023-09-08T03:53:20;100905.41;;;16.88;87.29
692;BME280;70475;50.084;8.576;2023-09-08T03:55:47;100902.38;;;16.78;87.58
692;BME280;70475;50.084;8.576;2023-09-08T03:58:15;100902.34;;;16.84;87.52
692;BME280;70475;50.084;8.576;2023-09-08T04:00:44;100904.88;;;16.73;87.67
692;BME280;70475;50.084;8.576;2023-09-08T04:03:11;100917.22;;;16.87;87.22
692;BME280;70475;50.084;8.576;2023-09-08T04:05:39;100909.31;;;16.92;86.67
692;BME280;70475;50.084;8.576;2023-09-08T04:08:07;100910.13;;;16.92;86.69
692;BME280;70475;50.084;8.576;2023-09-08T04:10:34;100911.78;;;16.93;86.41
692;BME280;70475;50.084;8.576;2023-09-08T04:13:02;100912.16;;;16.97;85.88
692;BME280;70475;50.084;8.576;2023-09-08T04:15:30;100912.16;;;16.97;86.10
692;BME280;70475;50.084;8.576;2023-09-08T04:17:59;100905.13;;;16.96;85.82
692;BME280;70475;50.084;8.576;2023-09-08T04:20:27;100914.22;;;16.95;85.74
692;BME280;70475;50.084;8.576;2023-09-08T04:22:54;100917.19;;;16.93;86.36
692;BME280;70475;50.084;8.576;2023-09-08T04:25:22;100917.53;;;16.97;85.53
692;BME280;70475;50.084;8.576;2023-09-08T04:27:51;100919.63;;;16.95;85.69
692;BME280;70475;50.084;8.576;2023-09-08T04:30:18;100916.56;;;16.91;85.86
692;BME280;70475;50.084;8.576;2023-09-08T04:32:46;100913.88;;;16.91;85.39
692;BME280;70475;50.084;8.576;2023-09-08T04:35:15;100924.41;;;16.93;85.37
692;BME280;70475;50.084;8.576;2023-09-08T04:37:46;100922.09;;;16.96;84.89
692;BME280;70475;50.084;8.576;2023-09-08T04:40:13;100923.13;;;16.95;85.10
692;BME280;70475;50.084;8.576;2023-09-08T04:42:41;100929.69;;;17.06;84.41
692;BME280;70475;50.084;8.576;2023-09-08T04:45:09;100927.44;;;17.03;84.24
692;BME280;70475;50.084;8.576;2023-09-08T04:47:37;100928.91;;;16.99;84.72
692;BME280;70475;50.084;8.576;2023-09-08T04:50:05;100929.78;;;16.93;85.01
692;BME280;70475;50.084;8.576;2023-09-08T04:52:34;100931.63;;;16.99;84.75
692;BME280;70475;50.084;8.576;2023-09-08T04:55:02;100933.31;;;16.93;84.84
692;BME280;70475;50.084;8.576;2023-09-08T04:57:29;100931.44;;;16.94;84.45
692;BME280;70475;50.084;8.576;2023-09-08T04:59:59;100935.38;;;16.91;84.84
692;BME280;70475;50.084;8.576;2023-09-08T05:02:27;100933.31;;;16.93;84.80
692;BME280;70475;50.084;8.576;2023-09-08T05:04:55;100931.22;;;16.95;84.56
692;BME280;70475;50.084;8.576;2023-09-08T05:07:22;100943.63;;;16.96;85.12
692;BME280;70475;50.084;8.576;2023-09-08T05:09:51;100943.41;;;16.98;84.95
692;BME280;70475;50.084;8.576;2023-09-08T05:12:23;100940.63;;;17.11;84.41
692;BME280;70475;50.084;8.576;2023-09-08T05:14:50;100939.75;;;17.17;83.90
692;BME280;70475;50.084;8.576;2023-09-08T05:17:26;100940.56;;;17.17;83.59
692;BME280;70475;50.084;8.576;2023-09-08T05:19:54;100941.84;;;17.15;83.83
692;BME280;70475;50.084;8.576;2023-09-08T05:22:21;100942.66;;;17.15;84.13
692;BME280;70475;50.084;8.576;2023-09-08T05:24:53;100947.84;;;17.17;84.29
692;BME280;70475;50.084;8.576;2023-09-08T05:27:20;100946.78;;;17.18;84.02
692;BME280;70475;50.084;8.576;2023-09-08T05:29:48;100948.81;;;17.22;84.20
692;BME280;70475;50.084;8.576;2023-09-08T05:32:15;100947.09;;;17.28;83.87
692;BME280;70475;50.084;8.576;2023-09-08T05:34:43;100946.66;;;17.31;83.65
692;BME280;70475;50.084;8.576;2023-09-08T05:37:11;100947.88;;;17.35;83.34
692;BME280;70475;50.084;8.576;2023-09-08T05:39:38;100937.88;;;17.42;83.31
692;BME280;70475;50.084;8.576;2023-09-08T05:42:07;100939.88;;;17.53;82.62
692;BME280;70475;50.084;8.576;2023-09-08T05:44:35;100946.19;;;17.65;81.70
692;BME280;70475;50.084;8.576;2023-09-08T05:47:03;100937.97;;;17.78;81.18
692;BME280;70475;50.084;8.576;2023-09-08T05:49:30;100946.63;;;17.98;81.00
692;BME280;70475;50.084;8.576;2023-09-08T05:52:01;100947.53;;;18.10;80.16
692;BME280;70475;50.084;8.576;2023-09-08T05:54:29;100956.47;;;18.28;79.95
692;BME280;70475;50.084;8.576;2023-09-08T05:56:57;100959.53;;;18.50;78.92
692;BME280;70475;50.084;8.576;2023-09-08T05:59:26;100952.28;;;18.80;76.77
692;BME280;70475;50.084;8.576;2023-09-08T06:01:53;100960.38;;;18.80;76.42
692;BME280;70475;50.084;8.576;2023-09-08T06:04:21;100967.09;;;18.60;77.54
692;BME280;70475;50.084;8.576;2023-09-08T06:06:49;100964.09;;;18.50;78.45
692;BME280;70475;50.084;8.576;2023-09-08T06:09:16;100965.25;;;18.42;78.34
692;BME280;70475;50.084;8.576;2023-09-08T06:11:44;100959.53;;;18.50;78.67
692;BME280;70475;50.084;8.576;2023-09-08T06:14:12;100960.25;;;18.57;78.84
692;BME280;70475;50.084;8.576;2023-09-08T06:16:41;100954.84;;;18.57;78.34
692;BME280;70475;50.084;8.576;2023-09-08T06:19:08;100954.84;;;18.57;78.56
692;BME280;70475;50.084;8.576;2023-09-08T06:21:36;100950.91;;;18.60;78.29
692;BME280;70475;50.084;8.576;2023-09-08T06:24:04;100952.00;;;18.70;78.18
692;BME280;70475;50.084;8.576;2023-09-08T06:26:32;100951.84;;;18.65;77.41
692;BME280;70475;50.084;8.576;2023-09-08T06:28:59;100956.53;;;18.58;78.11
692;BME280;70475;50.084;8.576;2023-09-08T06:31:33;100956.16;;;18.55;77.45
692;BME280;70475;50.084;8.576;2023-09-08T06:34:02;100959.53;;;18.50;78.23
692;BME280;70475;50.084;8.576;2023-09-08T06:36:29;100953.22;;;18.56;78.28
692;BME280;70475;50.084;8.576;2023-09-08T06:38:57;100954.94;;;18.69;77.80
692;BME280;70475;50.084;8.576;2023-09-08T06:41:26;100959.25;;;18.70;77.62
692;BME280;70475;50.084;8.576;2023-09-08T06:43:55;100957.53;;;18.75;77.39
692;BME280;70475;50.084;8.576;2023-09-08T06:46:22;100947.59;;;18.87;77.81
692;BME280;70475;50.084;8.576;2023-09-08T06:48:50;100954.16;;;18.91;76.96
692;BME280;70475;50.084;8.576;2023-09-08T06:51:20;100952.66;;;18.95;77.57
692;BME280;70475;50.084;8.576;2023-09-08T06:53:54;100955.09;;;18.85;76.99
692;BME280;70475;50.084;8.576;2023-09-08T06:56:22;100957.63;;;18.98;77.28
692;BME280;70475;50.084;8.576;2023-09-08T06:58:50;100944.47;;;19.13;76.71
692;BME280;70475;50.084;8.576;2023-09-08T07:01:18;100956.97;;;19.26;76.97
692;BME280;70475;50.084;8.576;2023-09-08T07:03:45;100954.91;;;19.39;76.04
692;BME280;70475;50.084;8.576;2023-09-08T07:06:13;100946.19;;;19.37;75.80
692;BME280;70475;50.084;8.576;2023-09-08T07:08:42;100950.44;;;19.56;75.76
692;BME280;70475;50.084;8.576;2023-09-08T07:11:11;100947.63;;;19.74;75.29
692;BME280;70475;50.084;8.576;2023-09-08T07:13:42;100954.31;;;19.83;73.57
692;BME280;70475;50.084;8.576;2023-09-08T07:16:11;100946.28;;;19.88;73.43
692;BME280;70475;50.084;8.576;2023-09-08T07:18:39;100943.69;;;20.05;73.10
692;BME280;70475;50.084;8.576;2023-09-08T07:21:06;100942.66;;;20.17;72.36
692;BME280;70475;50.084;8.576;2023-09-08T07:23:36;100945.69;;;20.21;72.46
692;BME280;70475;50.084;8.576;2023-09-08T07:26:06;100946.94;;;20.30;72.29
692;BME280;70475;50.084;8.576;2023-09-08T07:28:33;100956.25;;;20.22;72.53
692;BME280;70475;50.084;8.576;2023-09-08T07:31:02;100950.34;;;20.37;72.13
692;BME280;70475;50.084;8.576;2023-09-08T07:33:30;100954.66;;;20.50;71.46
692;BME280;70475;50.084;8.576;2023-09-08T07:36:03;100947.63;;;20.49;71.45
692;BME280;70475;50.084;8.576;2023-09-08T07:38:32;100948.28;;;20.56;70.71
692;BME280;70475;50.084;8.576;2023-09-08T07:41:01;100947.88;;;20.64;70.23
692;BME280;70475;50.084;8.576;2023-09-08T07:43:30;100952.31;;;20.70;70.31
692;BME280;70475;50.084;8.576;2023-09-08T07:46:07;100951.47;;;20.81;69.74
692;BME280;70475;50.084;8.576;2023-09-08T07:48:35;100941.88;;;20.90;70.02
692;BME280;70475;50.084;8.576;2023-09-08T07:51:03;100949.13;;;21.01;68.22
692;BME280;70475;50.084;8.576;2023-09-08T07:53:30;100951.13;;;21.05;68.56
692;BME280;70475;50.084;8.576;2023-09-08T07:55:58;100952.59;;;21.13;67.75
692;BME280;70475;50.084;8.576;2023-09-08T07:58:26;100952.78;;;21.23;68.87
692;BME280;70475;50.084;8.576;2023-09-08T08:00:55;100950.66;;;21.25;67.95
692;BME280;70475;50.084;8.576;2023-09-08T08:03:22;100951.16;;;21.38;67.67
692;BME280;70475;50.084;8.576;2023-09-08T08:05:50;100953.84;;;21.38;67.82
692;BME280;70475;50.084;8.576;2023-09-08T08:08:18;100961.47;;;21.58;66.31
692;BME280;70475;50.084;8.576;2023-09-08T08:10:48;100952.34;;;21.64;65.92
692;BME280;70475;50.084;8.576;2023-09-08T08:13:16;100955.72;;;21.71;64.50
692;BME280;70475;50.084;8.576;2023-09-08T08:15:44;100952.19;;;21.87;64.44
692;BME280;70475;50.084;8.576;2023-09-08T08:18:15;100950.75;;;22.01;64.47
692;BME280;70475;50.084;8.576;2023-09-08T08:20:42;100958.72;;;22.07;63.74
692;BME280;70475;50.084;8.576;2023-09-08T08:23:10;100953.31;;;22.12;63.72
692;BME280;70475;50.084;8.576;2023-09-08T08:25:38;100949.84;;;22.17;63.64
692;BME280;70475;50.084;8.576;2023-09-08T08:28:08;100955.97;;;22.29;64.10
692;BME280;70475;50.084;8.576;2023-09-08T08:30:42;100962.41;;;22.23;63.46
692;BME280;70475;50.084;8.576;2023-09-08T08:33:15;100954.78;;;22.20;65.60
692;BME280;70475;50.084;8.576;2023-09-08T08:35:48;100942.69;;;22.49;63.58
692;BME280;70475;50.084;8.576;2023-09-08T08:38:16;100946.78;;;22.52;64.89
692;BME280;70475;50.084;8.576;2023-09-08T08:40:45;100948.78;;;22.61;62.82
692;BME280;70475;50.084;8.576;2023-09-08T08:43:15;100945.72;;;22.79;61.02
692;BME280;70475;50.084;8.576;2023-09-08T08:45:46;100949.38;;;22.90;61.17
692;BME280;70475;50.084;8.576;2023-09-08T08:48:18;100951.22;;;22.84;62.95
692;BME280;70475;50.084;8.576;2023-09-08T08:50:49;100945.06;;;22.94;61.06
692;BME280;70475;50.084;8.576;2023-09-08T08:53:20;100943.69;;;22.91;62.16
692;BME280;70475;50.084;8.576;2023-09-08T08:55:49;100946.56;;;23.11;60.74
692;BME280;70475;50.084;8.576;2023-09-08T08:58:19;100937.81;;;23.04;59.67
692;BME280;70475;50.084;8.576;2023-09-08T09:00:51;100947.47;;;23.22;59.79
692;BME280;70475;50.084;8.576;2023-09-08T09:03:25;100938.22;;;23.18;59.40
692;BME280;70475;50.084;8.576;2023-09-08T09:05:53;100944.66;;;23.33;58.79
692;BME280;70475;50.084;8.576;2023-09-08T09:08:22;100943.50;;;23.29;58.23
692;BME280;70475;50.084;8.576;2023-09-08T09:10:51;100937.06;;;23.40;58.76
692;BME280;70475;50.084;8.576;2023-09-08T09:13:19;100935.53;;;23.54;58.29
692;BME280;70475;50.084;8.576;2023-09-08T09:15:48;100926.91;;;23.62;57.63
692;BME280;70475;50.084;8.576;2023-09-08T09:18:16;100924.75;;;23.69;57.75
692;BME280;70475;50.084;8.576;2023-09-08T09:21:01;100927.06;;;23.92;57.74
692;BME280;70475;50.084;8.576;2023-09-08T09:23:29;100924.41;;;23.97;57.66
692;BME280;70475;50.084;8.576;2023-09-08T09:26:03;100927.44;;;24.06;56.29
692;BME280;70475;50.084;8.576;2023-09-08T09:28:31;100928.22;;;24.01;56.44
692;BME280;70475;50.084;8.576;2023-09-08T09:30:59;100922.84;;;24.11;56.22
692;BME280;70475;50.084;8.576;2023-09-08T09:33:27;100932.97;;;24.31;55.41
692;BME280;70475;50.084;8.576;2023-09-08T09:36:06;100935.13;;;24.24;54.52
692;BME280;70475;50.084;8.576;2023-09-08T09:38:35;100930.25;;;24.26;55.54
692;BME280;70475;50.084;8.576;2023-09-08T09:41:03;100926.16;;;24.29;55.34
692;BME280;70475;50.084;8.576;2023-09-08T09:43:32;100931.13;;;24.42;54.46
692;BME280;70475;50.084;8.576;2023-09-08T09:46:00;100934.72;;;24.57;55.02
692;BME280;70475;50.084;8.576;2023-09-08T09:48:28;100926.81;;;24.61;52.22
692;BME280;70475;50.084;8.576;2023-09-08T09:50:56;100922.19;;;24.61;53.52
692;BME280;70475;50.084;8.576;2023-09-08T09:53:25;100924.72;;;24.78;52.48
692;BME280;70475;50.084;8.576;2023-09-08T09:55:53;100927.16;;;24.84;53.11
692;BME280;70475;50.084;8.576;2023-09-08T09:58:23;100924.72;;;24.88;52.66
692;BME280;70475;50.084;8.576;2023-09-08T10:00:52;100918.19;;;25.14;52.09
692;BME280;70475;50.084;8.576;2023-09-08T10:03:21;100914.38;;;25.25;51.78
692;BME280;70475;50.084;8.576;2023-09-08T10:05:50;100919.00;;;25.29;51.50
692;BME280;70475;50.084;8.576;2023-09-08T10:08:20;100916.56;;;25.38;50.25
692;BME280;70475;50.084;8.576;2023-09-08T10:10:49;100919.03;;;25.34;51.00
692;BME280;70475;50.084;8.576;2023-09-08T10:13:23;100911.94;;;25.38;50.37
692;BME280;70475;50.084;8.576;2023-09-08T10:15:57;100910.56;;;25.36;49.58
692;BME280;70475;50.084;8.576;2023-09-08T10:18:25;100908.91;;;25.45;47.76
692;BME280;70475;50.084;8.576;2023-09-08T10:20:56;100909.72;;;25.55;49.33
692;BME280;70475;50.084;8.576;2023-09-08T10:23:31;100903.16;;;25.61;48.53
692;BME280;70475;50.084;8.576;2023-09-08T10:26:10;100904.00;;;25.62;47.92
692;BME280;70475;50.084;8.576;2023-09-08T10:28:38;100898.50;;;25.72;49.47
692;BME280;70475;50.084;8.576;2023-09-08T10:31:06;100896.31;;;25.74;47.34
692;BME280;70475;50.084;8.576;2023-09-08T10:33:38;100894.94;;;25.71;48.17
692;BME280;70475;50.084;8.576;2023-09-08T10:36:08;100889.78;;;25.70;49.16
692;BME280;70475;50.084;8.576;2023-09-08T10:38:36;100898.75;;;25.85;50.34
692;BME280;70475;50.084;8.576;2023-09-08T10:41:27;100886.41;;;25.93;49.24
692;BME280;70475;50.084;8.576;2023-09-08T10:44:02;100881.53;;;26.00;50.55
692;BME280;70475;50.084;8.576;2023-09-08T10:46:32;100880.91;;;26.08;49.65
692;BME280;70475;50.084;8.576;2023-09-08T10:49:05;100876.78;;;26.16;48.48
692;BME280;70475;50.084;8.576;2023-09-08T10:51:35;100881.69;;;26.19;47.92
692;BME280;70475;50.084;8.576;2023-09-08T10:54:04;100883.31;;;26.20;48.29
692;BME280;70475;50.084;8.576;2023-09-08T10:56:48;100875.72;;;26.17;47.43
692;BME280;70475;50.084;8.576;2023-09-08T10:59:17;100880.31;;;26.21;47.94
692;BME280;70475;50.084;8.576;2023-09-08T11:01:47;100875.41;;;26.18;47.26
692;BME280;70475;50.084;8.576;2023-09-08T11:04:25;100879.50;;;26.21;48.66
692;BME280;70475;50.084;8.576;2023-09-08T11:06:56;100874.84;;;26.21;48.06
692;BME280;70475;50.084;8.576;2023-09-08T11:09:23;100873.66;;;26.42;46.96
692;BME280;70475;50.084;8.576;2023-09-08T11:11:52;100869.28;;;26.41;46.59
692;BME280;70475;50.084;8.576;2023-09-08T11:14:20;100868.66;;;26.54;46.87
692;BME280;70475;50.084;8.576;2023-09-08T11:16:48;100859.34;;;26.65;46.97
692;BME280;70475;50.084;8.576;2023-09-08T11:19:15;100861.34;;;26.83;45.12
692;BME280;70475;50.084;8.576;2023-09-08T11:21:43;100859.38;;;26.94;45.69
692;BME280;70475;50.084;8.576;2023-09-08T11:24:11;100853.88;;;26.99;46.85
692;BME280;70475;50.084;8.576;2023-09-08T11:26:41;100856.78;;;27.07;46.26
692;BME280;70475;50.084;8.576;2023-09-08T11:29:14;100858.66;;;27.12;45.31
692;BME280;70475;50.084;8.576;2023-09-08T11:31:44;100851.19;;;27.22;45.44
692;BME280;70475;50.084;8.576;2023-09-08T11:34:20;100849.84;;;27.20;44.73
692;BME280;70475;50.084;8.576;2023-09-08T11:36:48;100846.22;;;27.29;45.86
692;BME280;70475;50.084;8.576;2023-09-08T11:39:15;100849.78;;;27.30;45.99
692;BME280;70475;50.084;8.576;2023-09-08T11:41:43;100845.69;;;27.27;46.59
692;BME280;70475;50.084;8.576;2023-09-08T11:44:17;100840.88;;;27.43;45.20
692;BME280;70475;50.084;8.576;2023-09-08T11:46:46;100841.75;;;27.38;44.31
692;BME280;70475;50.084;8.576;2023-09-08T11:49:18;100835.22;;;27.34;43.79
692;BME280;70475;50.084;8.576;2023-09-08T11:51:49;100849.78;;;27.53;43.95
692;BME280;70475;50.084;8.576;2023-09-08T11:54:17;100839.47;;;27.45;42.79
692;BME280;70475;50.084;8.576;2023-09-08T11:56:45;100836.03;;;27.58;43.55
692;BME280;70475;50.084;8.576;2023-09-08T11:59:13;100839.06;;;27.57;44.77
692;BME280;70475;50.084;8.576;2023-09-08T12:01:43;100833.50;;;27.43;47.05
692;BME280;70475;50.084;8.576;2023-09-08T12:04:17;100837.69;;;27.59;45.61
692;BME280;70475;50.084;8.576;2023-09-08T12:06:44;100827.00;;;27.81;45.28
692;BME280;70475;50.084;8.576;2023-09-08T12:09:12;100825.59;;;27.89;45.12
692;BME280;70475;50.084;8.576;2023-09-08T12:11:41;100820.31;;;27.92;43.67
692;BME280;70475;50.084;8.576;2023-09-08T12:14:10;100825.91;;;27.82;43.64
692;BME280;70475;50.084;8.576;2023-09-08T12:16:39;100820.63;;;27.91;43.58
692;BME280;70475;50.084;8.576;2023-09-08T12:19:08;100822.91;;;28.02;42.77
692;BME280;70475;50.084;8.576;2023-09-08T12:21:59;100822.50;;;28.14;42.61
692;BME280;70475;50.084;8.576;2023-09-08T12:24:49;100812.63;;;27.94;43.76
692;BME280;70475;50.084;8.576;2023-09-08T12:27:17;100817.00;;;27.95;43.62
692;BME280;70475;50.084;8.576;2023-09-08T12:29:55;100829.00;;;28.18;43.88
692;BME280;70475;50.084;8.576;2023-09-08T12:32:24;100822.84;;;28.08;42.86
692;BME280;70475;50.084;8.576;2023-09-08T12:34:53;100822.63;;;27.80;43.70
692;BME280;70475;50.084;8.576;2023-09-08T12:37:21;100819.69;;;28.01;43.75
692;BME280;70475;50.084;8.576;2023-09-08T12:39:49;100817.66;;;28.25;43.28
692;BME280;70475;50.084;8.576;2023-09-08T12:42:17;100818.78;;;28.24;42.58
692;BME280;70475;50.084;8.576;2023-09-08T12:44:45;100813.41;;;28.19;42.16
692;BME280;70475;50.084;8.576;2023-09-08T12:47:13;100815.78;;;28.44;41.83
692;BME280;70475;50.084;8.576;2023-09-08T12:49:41;100811.09;;;28.63;41.40
692;BME280;70475;50.084;8.576;2023-09-08T12:52:10;100810.41;;;28.71;42.30
692;BME280;70475;50.084;8.576;2023-09-08T12:54:38;100811.09;;;28.63;41.47
692;BME280;70475;50.084;8.576;2023-09-08T12:57:05;100806.19;;;28.41;40.88
692;BME280;70475;50.084;8.576;2023-09-08T12:59:33;100805.91;;;28.43;41.89
692;BME280;70475;50.084;8.576;2023-09-08T13:02:06;100804.03;;;28.38;42.46
692;BME280;70475;50.084;8.576;2023-09-08T13:04:38;100803.16;;;28.43;42.37
692;BME280;70475;50.084;8.576;2023-09-08T13:07:06;100803.94;;;28.48;42.51
692;BME280;70475;50.084;8.576;2023-09-08T13:09:38;100798.06;;;28.36;42.06
692;BME280;70475;50.084;8.576;2023-09-08T13:12:08;100788.59;;;28.66;41.17
692;BME280;70475;50.084;8.576;2023-09-08T13:14:36;100793.88;;;28.76;41.33
692;BME280;70475;50.084;8.576;2023-09-08T13:17:07;100783.69;;;28.63;41.22
692;BME280;70475;50.084;8.576;2023-09-08T13:19:35;100793.53;;;28.64;41.26
692;BME280;70475;50.084;8.576;2023-09-08T13:22:04;100794.97;;;28.75;40.59